sensor_id;sensor_type;location;lat;lon;timestamp;pressure;altitude;pressure_sealevel;temperature;humidity
64841;BME280;51307;52.162;7.560;2022-12-13T00:00:15;100750.44;;;-2.83;89.82
64841;BME280;51307;52.162;7.560;2022-12-13T00:02:43;100753.34;;;-2.91;89.75
64841;BME280;51307;52.162;7.560;2022-12-13T00:05:09;100751.69;;;-2.92;89.44
64841;BME280;51307;52.162;7.560;2022-12-13T00:07:36;100750.28;;;-2.80;89.48
64841;BME280;51307;52.162;7.560;2022-12-13T00:10:02;100744.66;;;-2.68;89.53
64841;BME280;51307;52.162;7.560;2022-12-13T00:12:29;100741.03;;;-2.83;89.85
64841;BME280;51307;52.162;7.560;2022-12-13T00:14:54;100744.56;;;-2.85;90.23
64841;BME280;51307;52.162;7.560;2022-12-13T00:17:20;100743.28;;;-2.75;90.75
64841;BME280;51307;52.162;7.560;2022-12-13T00:19:46;100747.91;;;-2.64;90.85
64841;BME280;51307;52.162;7.560;2022-12-13T00:22:12;100746.50;;;-2.52;90.56
64841;BME280;51307;52.162;7.560;2022-12-13T00:24:37;100742.44;;;-2.57;91.40
64841;BME280;51307;52.162;7.560;2022-12-13T00:27:03;100738.00;;;-2.72;92.10
64841;BME280;51307;52.162;7.560;2022-12-13T00:29:29;100744.72;;;-2.69;92.90
64841;BME280;51307;52.162;7.560;2022-12-13T00:31:54;100734.22;;;-2.63;93.36
64841;BME280;51307;52.162;7.560;2022-12-13T00:34:20;100736.78;;;-2.63;93.51
64841;BME280;51307;52.162;7.560;2022-12-13T00:36:45;100733.53;;;-2.67;94.44
64841;BME280;51307;52.162;7.560;2022-12-13T00:39:11;100730.34;;;-2.72;95.01
64841;BME280;51307;52.162;7.560;2022-12-13T00:41:38;100724.75;;;-2.61;95.52
64841;BME280;51307;52.162;7.560;2022-12-13T00:44:05;100728.06;;;-2.59;95.83
64841;BME280;51307;52.162;7.560;2022-12-13T00:46:31;100723.72;;;-2.57;95.75
64841;BME280;51307;52.162;7.560;2022-12-13T00:48:59;100724.19;;;-2.68;96.24
64841;BME280;51307;52.162;7.560;2022-12-13T00:51:28;100725.44;;;-2.77;96.63
64841;BME280;51307;52.162;7.560;2022-12-13T00:53:54;100721.78;;;-2.71;97.05
64841;BME280;51307;52.162;7.560;2022-12-13T00:56:22;100720.59;;;-2.83;96.84
64841;BME280;51307;52.162;7.560;2022-12-13T00:58:50;100720.66;;;-2.65;96.96
64841;BME280;51307;52.162;7.560;2022-12-13T01:01:18;100716.75;;;-2.72;97.41
64841;BME280;51307;52.162;7.560;2022-12-13T01:03:44;100717.84;;;-2.59;97.12
64841;BME280;51307;52.162;7.560;2022-12-13T01:06:16;100721.44;;;-2.63;96.74
64841;BME280;51307;52.162;7.560;2022-12-13T01:08:43;100723.97;;;-2.44;96.29
64841;BME280;51307;52.162;7.560;2022-12-13T01:11:09;100721.50;;;-2.65;96.37
64841;BME280;51307;52.162;7.560;2022-12-13T01:13:35;100719.56;;;-2.60;96.69
64841;BME280;51307;52.162;7.560;2022-12-13T01:16:03;100721.69;;;-2.69;97.40
64841;BME280;51307;52.162;7.560;2022-12-13T01:18:30;100725.03;;;-2.67;97.49
64841;BME280;51307;52.162;7.560;2022-12-13T01:20:57;100720.41;;;-2.59;97.37
64841;BME280;51307;52.162;7.560;2022-12-13T01:23:23;100720.00;;;-2.69;97.54
64841;BME280;51307;52.162;7.560;2022-12-13T01:25:49;100722.66;;;-2.72;98.04
64841;BME280;51307;52.162;7.560;2022-12-13T01:28:14;100724.25;;;-2.69;98.35
64841;BME280;51307;52.162;7.560;2022-12-13T01:30:40;100722.66;;;-2.72;98.47
64841;BME280;51307;52.162;7.560;2022-12-13T01:33:05;100724.91;;;-2.64;98.38
64841;BME280;51307;52.162;7.560;2022-12-13T01:35:33;100719.78;;;-2.64;98.16
64841;BME280;51307;52.162;7.560;2022-12-13T01:37:58;100718.19;;;-2.67;98.34
64841;BME280;51307;52.162;7.560;2022-12-13T01:40:24;100716.94;;;-2.58;97.99
64841;BME280;51307;52.162;7.560;2022-12-13T01:42:49;100715.44;;;-2.62;98.20
64841;BME280;51307;52.162;7.560;2022-12-13T01:45:26;100722.00;;;-2.76;98.57
64841;BME280;51307;52.162;7.560;2022-12-13T01:48:02;100719.91;;;-2.67;98.19
64841;BME280;51307;52.162;7.560;2022-12-13T01:50:34;100722.41;;;-2.66;97.76
64841;BME280;51307;52.162;7.560;2022-12-13T01:53:06;100724.41;;;-2.72;97.82
64841;BME280;51307;52.162;7.560;2022-12-13T01:55:35;100719.41;;;-2.57;97.91
64841;BME280;51307;52.162;7.560;2022-12-13T01:58:04;100719.34;;;-2.55;97.23
64841;BME280;51307;52.162;7.560;2022-12-13T02:00:34;100718.81;;;-2.62;97.08
64841;BME280;51307;52.162;7.560;2022-12-13T02:03:01;100718.19;;;-2.67;97.61
64841;BME280;51307;52.162;7.560;2022-12-13T02:05:43;100712.81;;;-2.80;98.08
64841;BME280;51307;52.162;7.560;2022-12-13T02:08:14;100719.16;;;-2.69;98.14
64841;BME280;51307;52.162;7.560;2022-12-13T02:10:42;100718.47;;;-2.73;98.31
64841;BME280;51307;52.162;7.560;2022-12-13T02:13:08;100709.34;;;-2.79;99.10
64841;BME280;51307;52.162;7.560;2022-12-13T02:18:34;100713.56;;;-2.78;98.96
64841;BME280;51307;52.162;7.560;2022-12-13T02:38:15;100713.09;;;-2.67;97.72
64841;BME280;51307;52.162;7.560;2022-12-13T02:43:47;100718.47;;;-2.73;97.82
64841;BME280;51307;52.162;7.560;2022-12-13T02:46:19;100718.44;;;-2.54;96.76
64841;BME280;51307;52.162;7.560;2022-12-13T02:48:48;100716.47;;;-2.66;96.34
64841;BME280;51307;52.162;7.560;2022-12-13T02:51:18;100709.25;;;-2.96;96.47
64841;BME280;51307;52.162;7.560;2022-12-13T02:53:45;100710.31;;;-2.62;96.44
64841;BME280;51307;52.162;7.560;2022-12-13T02:56:11;100713.47;;;-2.57;95.50
64841;BME280;51307;52.162;7.560;2022-12-13T02:58:41;100713.28;;;-2.71;95.11
64841;BME280;51307;52.162;7.560;2022-12-13T03:04:23;100713.34;;;-2.92;95.71
64841;BME280;51307;52.162;7.560;2022-12-13T03:07:38;100713.00;;;-3.03;96.65
64841;BME280;51307;52.162;7.560;2022-12-13T03:10:04;100714.25;;;-2.74;94.75
64841;BME280;51307;52.162;7.560;2022-12-13T03:12:51;100710.16;;;-2.78;94.92
64841;BME280;51307;52.162;7.560;2022-12-13T03:15:53;100708.72;;;-2.84;94.76
64841;BME280;51307;52.162;7.560;2022-12-13T03:18:23;100718.94;;;-2.84;94.48
64841;BME280;51307;52.162;7.560;2022-12-13T03:20:56;100721.78;;;-2.90;94.40
64841;BME280;51307;52.162;7.560;2022-12-13T03:23:23;100724.06;;;-2.84;93.79
64841;BME280;51307;52.162;7.560;2022-12-13T03:25:52;100724.03;;;-3.22;95.49
64841;BME280;51307;52.162;7.560;2022-12-13T03:28:18;100726.28;;;-3.34;96.23
64841;BME280;51307;52.162;7.560;2022-12-13T03:30:44;100726.50;;;-3.20;96.27
64841;BME280;51307;52.162;7.560;2022-12-13T03:33:10;100723.22;;;-3.03;96.04
64841;BME280;51307;52.162;7.560;2022-12-13T03:35:37;100712.63;;;-3.14;95.99
64841;BME280;51307;52.162;7.560;2022-12-13T03:38:03;100710.78;;;-3.11;95.74
64841;BME280;51307;52.162;7.560;2022-12-13T03:40:31;100705.44;;;-3.25;95.76
64841;BME280;51307;52.162;7.560;2022-12-13T03:42:58;100710.66;;;-2.89;95.20
64841;BME280;51307;52.162;7.560;2022-12-13T03:45:24;100703.44;;;-3.19;95.19
64841;BME280;51307;52.162;7.560;2022-12-13T03:47:49;100702.16;;;-2.89;94.34
64841;BME280;51307;52.162;7.560;2022-12-13T03:50:15;100709.91;;;-2.91;94.18
64841;BME280;51307;52.162;7.560;2022-12-13T03:52:41;100704.50;;;-2.85;93.69
64841;BME280;51307;52.162;7.560;2022-12-13T03:55:07;100709.91;;;-2.91;94.22
64841;BME280;51307;52.162;7.560;2022-12-13T03:57:32;100707.34;;;-2.91;93.96
64841;BME280;51307;52.162;7.560;2022-12-13T03:59:58;100703.19;;;-3.12;94.02
64841;BME280;51307;52.162;7.560;2022-12-13T04:02:23;100711.09;;;-3.19;94.65
64841;BME280;51307;52.162;7.560;2022-12-13T04:04:49;100703.13;;;-3.11;94.78
64841;BME280;51307;52.162;7.560;2022-12-13T04:07:14;100712.38;;;-3.08;94.08
64841;BME280;51307;52.162;7.560;2022-12-13T04:09:40;100713.03;;;-3.24;94.93
64841;BME280;51307;52.162;7.560;2022-12-13T04:12:05;100716.63;;;-3.09;93.81
64841;BME280;51307;52.162;7.560;2022-12-13T04:14:50;100711.72;;;-3.13;94.57
64841;BME280;51307;52.162;7.560;2022-12-13T04:17:15;100705.44;;;-3.25;93.95
64841;BME280;51307;52.162;7.560;2022-12-13T04:19:41;100698.94;;;-3.32;94.50
64841;BME280;51307;52.162;7.560;2022-12-13T04:22:06;100701.84;;;-3.21;93.96
64841;BME280;51307;52.162;7.560;2022-12-13T04:24:32;100700.84;;;-3.38;94.58
64841;BME280;51307;52.162;7.560;2022-12-13T04:26:58;100687.72;;;-3.49;95.09
64841;BME280;51307;52.162;7.560;2022-12-13T04:29:24;100693.84;;;-3.32;94.95
64841;BME280;51307;52.162;7.560;2022-12-13T04:31:49;100691.47;;;-3.58;95.34
64841;BME280;51307;52.162;7.560;2022-12-13T04:34:15;100689.72;;;-3.16;94.75
64841;BME280;51307;52.162;7.560;2022-12-13T04:36:40;100692.53;;;-3.22;94.05
64841;BME280;51307;52.162;7.560;2022-12-13T04:39:06;100692.09;;;-3.32;94.54
64841;BME280;51307;52.162;7.560;2022-12-13T04:41:38;100689.66;;;-3.14;94.37
64841;BME280;51307;52.162;7.560;2022-12-13T04:44:06;100696.66;;;-3.39;94.57
64841;BME280;51307;52.162;7.560;2022-12-13T04:46:32;100698.13;;;-3.53;95.29
64841;BME280;51307;52.162;7.560;2022-12-13T04:48:59;100700.38;;;-3.46;94.93
64841;BME280;51307;52.162;7.560;2022-12-13T04:51:24;100699.06;;;-3.35;94.54
64841;BME280;51307;52.162;7.560;2022-12-13T04:53:50;100695.88;;;-3.41;94.76
64841;BME280;51307;52.162;7.560;2022-12-13T04:56:15;100696.13;;;-3.07;93.37
64841;BME280;51307;52.162;7.560;2022-12-13T04:58:41;100689.00;;;-3.39;93.44
64841;BME280;51307;52.162;7.560;2022-12-13T05:01:08;100696.44;;;-3.34;93.56
64841;BME280;51307;52.162;7.560;2022-12-13T05:03:34;100690.63;;;-3.38;93.66
64841;BME280;51307;52.162;7.560;2022-12-13T05:06:07;100691.75;;;-3.43;94.18
64841;BME280;51307;52.162;7.560;2022-12-13T05:08:35;100692.44;;;-3.40;94.06
64841;BME280;51307;52.162;7.560;2022-12-13T05:11:02;100689.38;;;-3.48;94.47
64841;BME280;51307;52.162;7.560;2022-12-13T05:13:27;100684.97;;;-3.44;94.25
64841;BME280;51307;52.162;7.560;2022-12-13T05:15:54;100684.78;;;-3.40;94.48
64841;BME280;51307;52.162;7.560;2022-12-13T05:18:20;100688.84;;;-3.35;94.33
64841;BME280;51307;52.162;7.560;2022-12-13T05:20:46;100686.63;;;-3.43;94.61
64841;BME280;51307;52.162;7.560;2022-12-13T05:23:11;100682.69;;;-3.50;94.66
64841;BME280;51307;52.162;7.560;2022-12-13T05:25:37;100677.13;;;-3.21;94.40
64841;BME280;51307;52.162;7.560;2022-12-13T05:28:02;100677.59;;;-3.11;93.08
64841;BME280;51307;52.162;7.560;2022-12-13T05:30:29;100675.97;;;-3.32;93.35
64841;BME280;51307;52.162;7.560;2022-12-13T05:32:54;100678.06;;;-3.42;93.91
64841;BME280;51307;52.162;7.560;2022-12-13T05:35:20;100670.56;;;-3.45;94.47
64841;BME280;51307;52.162;7.560;2022-12-13T05:37:45;100677.00;;;-3.18;93.93
64841;BME280;51307;52.162;7.560;2022-12-13T05:40:11;100673.56;;;-3.17;93.18
64841;BME280;51307;52.162;7.560;2022-12-13T05:42:36;100676.31;;;-3.21;93.38
64841;BME280;51307;52.162;7.560;2022-12-13T05:45:05;100679.06;;;-3.07;93.27
64841;BME280;51307;52.162;7.560;2022-12-13T05:47:31;100680.50;;;-3.20;93.32
64841;BME280;51307;52.162;7.560;2022-12-13T05:49:56;100670.91;;;-3.34;93.54
64841;BME280;51307;52.162;7.560;2022-12-13T05:52:22;100666.81;;;-3.38;94.33
64841;BME280;51307;52.162;7.560;2022-12-13T05:54:47;100664.06;;;-3.52;94.98
64841;BME280;51307;52.162;7.560;2022-12-13T05:57:13;100675.50;;;-3.42;94.76
64841;BME280;51307;52.162;7.560;2022-12-13T05:59:38;100671.63;;;-3.51;95.19
64841;BME280;51307;52.162;7.560;2022-12-13T06:02:04;100671.50;;;-3.48;95.13
64841;BME280;51307;52.162;7.560;2022-12-13T06:04:29;100672.28;;;-3.46;95.19
64841;BME280;51307;52.162;7.560;2022-12-13T06:06:55;100673.63;;;-3.37;94.70
64841;BME280;51307;52.162;7.560;2022-12-13T06:09:21;100671.78;;;-3.14;94.35
64841;BME280;51307;52.162;7.560;2022-12-13T06:11:47;100680.75;;;-3.06;94.38
64841;BME280;51307;52.162;7.560;2022-12-13T06:14:13;100682.59;;;-3.09;93.66
64841;BME280;51307;52.162;7.560;2022-12-13T06:16:39;100677.09;;;-3.19;93.44
64841;BME280;51307;52.162;7.560;2022-12-13T06:19:04;100676.38;;;-3.23;94.21
64841;BME280;51307;52.162;7.560;2022-12-13T06:21:31;100672.44;;;-3.30;94.92
64841;BME280;51307;52.162;7.560;2022-12-13T06:23:57;100684.34;;;-3.10;93.81
64841;BME280;51307;52.162;7.560;2022-12-13T06:26:22;100678.53;;;-3.13;93.91
64841;BME280;51307;52.162;7.560;2022-12-13T06:28:48;100682.88;;;-3.16;94.46
64841;BME280;51307;52.162;7.560;2022-12-13T06:31:13;100674.53;;;-3.19;93.85
64841;BME280;51307;52.162;7.560;2022-12-13T06:33:39;100672.50;;;-3.31;94.32
64841;BME280;51307;52.162;7.560;2022-12-13T06:36:04;100674.63;;;-3.41;95.03
64841;BME280;51307;52.162;7.560;2022-12-13T06:38:30;100669.78;;;-3.47;94.89
64841;BME280;51307;52.162;7.560;2022-12-13T06:41:11;100672.66;;;-3.34;94.52
64841;BME280;51307;52.162;7.560;2022-12-13T06:43:41;100668.88;;;-3.46;94.38
64841;BME280;51307;52.162;7.560;2022-12-13T06:46:07;100666.16;;;-3.42;94.31
64841;BME280;51307;52.162;7.560;2022-12-13T06:48:33;100675.72;;;-3.47;94.50
64841;BME280;51307;52.162;7.560;2022-12-13T06:51:00;100669.28;;;-3.35;93.83
64841;BME280;51307;52.162;7.560;2022-12-13T06:53:26;100674.56;;;-3.40;93.17
64841;BME280;51307;52.162;7.560;2022-12-13T06:55:51;100679.47;;;-3.35;92.88
64841;BME280;51307;52.162;7.560;2022-12-13T06:58:17;100683.06;;;-3.20;92.03
64841;BME280;51307;52.162;7.560;2022-12-13T07:00:42;100678.34;;;-3.48;91.64
64841;BME280;51307;52.162;7.560;2022-12-13T07:03:10;100681.63;;;-3.26;91.45
64841;BME280;51307;52.162;7.560;2022-12-13T07:05:39;100684.31;;;-3.29;91.61
64841;BME280;51307;52.162;7.560;2022-12-13T07:08:04;100683.47;;;-3.48;91.89
64841;BME280;51307;52.162;7.560;2022-12-13T07:10:31;100685.13;;;-3.68;92.80
64841;BME280;51307;52.162;7.560;2022-12-13T07:12:56;100679.25;;;-3.70;92.65
64841;BME280;51307;52.162;7.560;2022-12-13T07:15:22;100683.06;;;-3.60;92.59
64841;BME280;51307;52.162;7.560;2022-12-13T07:17:51;100675.50;;;-3.61;91.71
64841;BME280;51307;52.162;7.560;2022-12-13T07:20:17;100674.00;;;-3.67;91.96
64841;BME280;51307;52.162;7.560;2022-12-13T07:22:44;100679.25;;;-3.70;91.98
64841;BME280;51307;52.162;7.560;2022-12-13T07:25:11;100675.53;;;-3.63;91.74
64841;BME280;51307;52.162;7.560;2022-12-13T07:27:36;100676.69;;;-3.70;91.44
64841;BME280;51307;52.162;7.560;2022-12-13T07:30:02;100681.88;;;-3.71;91.56
64841;BME280;51307;52.162;7.560;2022-12-13T07:32:28;100683.69;;;-3.34;91.39
64841;BME280;51307;52.162;7.560;2022-12-13T07:34:54;100677.03;;;-3.57;91.35
64841;BME280;51307;52.162;7.560;2022-12-13T07:37:19;100681.03;;;-3.72;92.51
64841;BME280;51307;52.162;7.560;2022-12-13T07:39:45;100679.59;;;-3.38;92.00
64841;BME280;51307;52.162;7.560;2022-12-13T07:42:10;100682.41;;;-3.44;92.11
64841;BME280;51307;52.162;7.560;2022-12-13T07:44:36;100683.84;;;-3.78;92.99
64841;BME280;51307;52.162;7.560;2022-12-13T07:47:01;100681.47;;;-3.42;93.03
64841;BME280;51307;52.162;7.560;2022-12-13T07:49:27;100682.03;;;-3.55;93.37
64841;BME280;51307;52.162;7.560;2022-12-13T07:51:53;100678.16;;;-3.44;93.70
64841;BME280;51307;52.162;7.560;2022-12-13T07:54:18;100687.34;;;-3.40;93.91
64841;BME280;51307;52.162;7.560;2022-12-13T07:56:44;100683.78;;;-3.56;94.49
64841;BME280;51307;52.162;7.560;2022-12-13T07:59:10;100676.72;;;-3.51;94.42
64841;BME280;51307;52.162;7.560;2022-12-13T08:01:35;100674.84;;;-3.46;94.29
64841;BME280;51307;52.162;7.560;2022-12-13T08:04:02;100679.69;;;-3.21;94.09
64841;BME280;51307;52.162;7.560;2022-12-13T08:06:28;100681.75;;;-3.29;93.36
64841;BME280;51307;52.162;7.560;2022-12-13T08:08:56;100682.97;;;-3.38;94.10
64841;BME280;51307;52.162;7.560;2022-12-13T08:11:22;100688.78;;;-3.34;94.02
64841;BME280;51307;52.162;7.560;2022-12-13T08:13:48;100689.59;;;-3.33;94.12
64841;BME280;51307;52.162;7.560;2022-12-13T08:16:13;100694.72;;;-3.33;94.01
64841;BME280;51307;52.162;7.560;2022-12-13T08:18:43;100693.00;;;-3.33;93.49
64841;BME280;51307;52.162;7.560;2022-12-13T08:21:09;100688.38;;;-3.25;93.25
64841;BME280;51307;52.162;7.560;2022-12-13T08:23:35;100685.72;;;-3.42;93.40
64841;BME280;51307;52.162;7.560;2022-12-13T08:26:03;100682.50;;;-3.27;92.95
64841;BME280;51307;52.162;7.560;2022-12-13T08:28:30;100686.38;;;-3.37;92.55
64841;BME280;51307;52.162;7.560;2022-12-13T08:31:05;100690.13;;;-3.25;92.45
64841;BME280;51307;52.162;7.560;2022-12-13T08:33:33;100676.31;;;-3.21;91.05
64841;BME280;51307;52.162;7.560;2022-12-13T08:36:14;100680.38;;;-3.36;91.62
64841;BME280;51307;52.162;7.560;2022-12-13T08:38:41;100675.69;;;-3.26;91.22
64841;BME280;51307;52.162;7.560;2022-12-13T08:41:07;100675.56;;;-3.23;90.86
64841;BME280;51307;52.162;7.560;2022-12-13T08:43:33;100675.13;;;-3.33;90.71
64841;BME280;51307;52.162;7.560;2022-12-13T08:45:59;100681.69;;;-3.27;90.39
64841;BME280;51307;52.162;7.560;2022-12-13T08:48:25;100680.19;;;-3.12;90.23
64841;BME280;51307;52.162;7.560;2022-12-13T08:50:51;100678.81;;;-3.01;89.46
64841;BME280;51307;52.162;7.560;2022-12-13T08:53:16;100684.09;;;-3.24;89.59
64841;BME280;51307;52.162;7.560;2022-12-13T08:55:42;100682.81;;;-3.33;89.95
64841;BME280;51307;52.162;7.560;2022-12-13T08:58:08;100680.75;;;-3.06;89.31
64841;BME280;51307;52.162;7.560;2022-12-13T09:00:34;100690.28;;;-2.90;88.73
64841;BME280;51307;52.162;7.560;2022-12-13T09:03:00;100694.50;;;-3.08;89.49
64841;BME280;51307;52.162;7.560;2022-12-13T09:05:28;100691.94;;;-3.08;89.54
64841;BME280;51307;52.162;7.560;2022-12-13T09:07:54;100695.63;;;-3.16;89.51
64841;BME280;51307;52.162;7.560;2022-12-13T09:10:20;100702.72;;;-3.02;89.72
64841;BME280;51307;52.162;7.560;2022-12-13T09:12:45;100697.47;;;-2.99;89.44
64841;BME280;51307;52.162;7.560;2022-12-13T09:15:11;100695.25;;;-2.87;89.17
64841;BME280;51307;52.162;7.560;2022-12-13T09:17:37;100703.47;;;-3.00;89.46
64841;BME280;51307;52.162;7.560;2022-12-13T09:20:03;100710.72;;;-2.90;89.36
64841;BME280;51307;52.162;7.560;2022-12-13T09:22:29;100707.53;;;-2.96;89.94
64841;BME280;51307;52.162;7.560;2022-12-13T09:24:54;100712.31;;;-2.88;89.79
64841;BME280;51307;52.162;7.560;2022-12-13T09:27:20;100711.34;;;-2.85;89.27
64841;BME280;51307;52.162;7.560;2022-12-13T09:29:46;100719.63;;;-2.80;89.23
64841;BME280;51307;52.162;7.560;2022-12-13T09:32:11;100718.38;;;-2.71;89.36
64841;BME280;51307;52.162;7.560;2022-12-13T09:34:37;100719.84;;;-3.04;90.23
64841;BME280;51307;52.162;7.560;2022-12-13T09:37:02;100727.50;;;-2.85;90.21
64841;BME280;51307;52.162;7.560;2022-12-13T09:39:28;100716.38;;;-3.03;90.29
64841;BME280;51307;52.162;7.560;2022-12-13T09:41:57;100721.00;;;-2.92;90.83
64841;BME280;51307;52.162;7.560;2022-12-13T09:44:28;100732.69;;;-2.67;90.58
64841;BME280;51307;52.162;7.560;2022-12-13T09:46:58;100730.28;;;-2.70;90.24
64841;BME280;51307;52.162;7.560;2022-12-13T09:49:34;100731.72;;;-2.84;90.75
64841;BME280;51307;52.162;7.560;2022-12-13T09:52:06;100734.22;;;-2.63;90.50
64841;BME280;51307;52.162;7.560;2022-12-13T09:54:35;100729.31;;;-2.68;90.60
64841;BME280;51307;52.162;7.560;2022-12-13T09:57:03;100731.72;;;-2.65;90.82
64841;BME280;51307;52.162;7.560;2022-12-13T09:59:34;100734.97;;;-2.61;91.06
64841;BME280;51307;52.162;7.560;2022-12-13T10:04:40;100723.44;;;-2.51;91.10
64841;BME280;51307;52.162;7.560;2022-12-13T10:07:23;100723.81;;;-2.22;90.16
64841;BME280;51307;52.162;7.560;2022-12-13T10:09:58;100722.47;;;-2.48;90.70
64841;BME280;51307;52.162;7.560;2022-12-13T10:12:24;100714.03;;;-2.50;91.04
64841;BME280;51307;52.162;7.560;2022-12-13T10:14:57;100718.66;;;-2.59;91.81
64841;BME280;51307;52.162;7.560;2022-12-13T10:17:30;100710.00;;;-2.56;91.86
64841;BME280;51307;52.162;7.560;2022-12-13T10:19:59;100712.63;;;-2.39;91.71
64841;BME280;51307;52.162;7.560;2022-12-13T10:22:25;100709.19;;;-2.57;92.29
64841;BME280;51307;52.162;7.560;2022-12-13T10:24:57;100706.16;;;-2.46;92.20
64841;BME280;51307;52.162;7.560;2022-12-13T10:27:34;100702.13;;;-2.51;93.03
64841;BME280;51307;52.162;7.560;2022-12-13T10:30:14;100702.59;;;-2.43;93.04
64841;BME280;51307;52.162;7.560;2022-12-13T10:32:59;100698.31;;;-2.43;93.31
64841;BME280;51307;52.162;7.560;2022-12-13T10:35:33;100687.19;;;-2.42;93.34
64841;BME280;51307;52.162;7.560;2022-12-13T10:38:26;100681.81;;;-2.36;93.52
64841;BME280;51307;52.162;7.560;2022-12-13T10:40:47;100682.09;;;-2.42;93.79
64841;BME280;51307;52.162;7.560;2022-12-13T10:43:16;100683.22;;;-2.30;93.18
64841;BME280;51307;52.162;7.560;2022-12-13T10:45:55;100673.91;;;-2.31;93.46
64841;BME280;51307;52.162;7.560;2022-12-13T10:51:13;100666.59;;;-2.21;93.67
64841;BME280;51307;52.162;7.560;2022-12-13T10:56:18;100660.38;;;-2.33;94.43
64841;BME280;51307;52.162;7.560;2022-12-13T10:58:46;100658.19;;;-2.06;94.31
64841;BME280;51307;52.162;7.560;2022-12-13T11:03:58;100640.16;;;-2.03;94.20
64841;BME280;51307;52.162;7.560;2022-12-13T11:06:25;100640.22;;;-1.87;94.39
64841;BME280;51307;52.162;7.560;2022-12-13T11:08:52;100645.63;;;-1.93;94.26
64841;BME280;51307;52.162;7.560;2022-12-13T11:11:27;100644.19;;;-1.81;94.44
64841;BME280;51307;52.162;7.560;2022-12-13T11:13:56;100639.16;;;-1.83;94.35
64841;BME280;51307;52.162;7.560;2022-12-13T11:16:33;100637.88;;;-1.92;95.06
64841;BME280;51307;52.162;7.560;2022-12-13T11:19:15;100638.31;;;-1.83;94.89
64841;BME280;51307;52.162;7.560;2022-12-13T11:21:46;100632.53;;;-1.87;95.03
64841;BME280;51307;52.162;7.560;2022-12-13T11:24:35;100636.19;;;-1.75;94.57
64841;BME280;51307;52.162;7.560;2022-12-13T11:30:08;100620.56;;;-1.53;93.16
64841;BME280;51307;52.162;7.560;2022-12-13T11:32:52;100622.03;;;-1.65;94.03
64841;BME280;51307;52.162;7.560;2022-12-13T11:38:24;100620.59;;;-1.37;93.74
64841;BME280;51307;52.162;7.560;2022-12-13T11:41:01;100612.66;;;-1.33;93.99
64841;BME280;51307;52.162;7.560;2022-12-13T11:43:41;100610.78;;;-1.29;93.88
64841;BME280;51307;52.162;7.560;2022-12-13T11:46:18;100604.72;;;-1.28;93.98
64841;BME280;51307;52.162;7.560;2022-12-13T11:48:52;100601.34;;;-1.13;93.75
64841;BME280;51307;52.162;7.560;2022-12-13T11:51:30;100605.09;;;-1.18;93.65
64841;BME280;51307;52.162;7.560;2022-12-13T11:56:55;100591.69;;;-1.23;93.82
64841;BME280;51307;52.162;7.560;2022-12-13T11:59:49;100594.81;;;-1.18;93.99
64841;BME280;51307;52.162;7.560;2022-12-13T12:02:18;100585.06;;;-1.12;93.66
64841;BME280;51307;52.162;7.560;2022-12-13T12:04:52;100581.44;;;-1.07;93.66
64841;BME280;51307;52.162;7.560;2022-12-13T12:07:38;100572.69;;;-1.03;93.67
64841;BME280;51307;52.162;7.560;2022-12-13T12:10:39;100573.44;;;-1.01;94.49
64841;BME280;51307;52.162;7.560;2022-12-13T12:13:21;100569.44;;;-0.91;94.33
64841;BME280;51307;52.162;7.560;2022-12-13T12:18:28;100574.06;;;-0.98;94.62
64841;BME280;51307;52.162;7.560;2022-12-13T12:26:17;100569.09;;;-0.85;93.52
64841;BME280;51307;52.162;7.560;2022-12-13T12:37:18;100562.03;;;-0.65;93.36
64841;BME280;51307;52.162;7.560;2022-12-13T12:42:53;100562.94;;;-0.67;93.33
64841;BME280;51307;52.162;7.560;2022-12-13T12:45:44;100561.88;;;-0.78;94.05
64841;BME280;51307;52.162;7.560;2022-12-13T12:48:42;100554.88;;;-0.75;93.81
64841;BME280;51307;52.162;7.560;2022-12-13T12:51:26;100553.03;;;-0.73;93.89
64841;BME280;51307;52.162;7.560;2022-12-13T12:56:51;100547.75;;;-0.55;93.18
64841;BME280;51307;52.162;7.560;2022-12-13T12:59:24;100547.34;;;-0.48;91.97
64841;BME280;51307;52.162;7.560;2022-12-13T13:02:00;100540.00;;;-0.54;91.70
64841;BME280;51307;52.162;7.560;2022-12-13T13:04:41;100547.88;;;-0.42;91.52
64841;BME280;51307;52.162;7.560;2022-12-13T13:07:20;100549.16;;;-0.50;91.89
64841;BME280;51307;52.162;7.560;2022-12-13T13:09:49;100552.19;;;-0.43;91.68
64841;BME280;51307;52.162;7.560;2022-12-13T13:12:15;100550.47;;;-0.42;91.25
64841;BME280;51307;52.162;7.560;2022-12-13T13:14:41;100554.97;;;-0.46;90.99
64841;BME280;51307;52.162;7.560;2022-12-13T13:19:48;100548.75;;;-0.42;91.32
64841;BME280;51307;52.162;7.560;2022-12-13T13:22:27;100556.66;;;-0.47;91.88
64841;BME280;51307;52.162;7.560;2022-12-13T13:25:23;100550.31;;;-0.55;91.99
64841;BME280;51307;52.162;7.560;2022-12-13T13:30:26;100548.28;;;-0.64;92.32
64841;BME280;51307;52.162;7.560;2022-12-13T13:32:56;100547.53;;;-0.67;92.68
64841;BME280;51307;52.162;7.560;2022-12-13T13:45:29;100551.78;;;-0.65;93.65
64841;BME280;51307;52.162;7.560;2022-12-13T13:56:33;100547.16;;;-0.75;93.40
64841;BME280;51307;52.162;7.560;2022-12-13T14:08:19;100544.13;;;-0.81;94.20
64841;BME280;51307;52.162;7.560;2022-12-13T14:25:48;100541.81;;;-1.02;94.36
64841;BME280;51307;52.162;7.560;2022-12-13T14:30:43;100537.53;;;-1.01;94.08
64841;BME280;51307;52.162;7.560;2022-12-13T14:33:22;100539.63;;;-1.08;93.96
64841;BME280;51307;52.162;7.560;2022-12-13T14:35:59;100545.72;;;-1.11;94.15
64841;BME280;51307;52.162;7.560;2022-12-13T14:38:28;100543.34;;;-1.14;94.19
64841;BME280;51307;52.162;7.560;2022-12-13T14:40:57;100544.47;;;-1.19;94.17
64841;BME280;51307;52.162;7.560;2022-12-13T14:43:29;100543.97;;;-1.26;94.39
64841;BME280;51307;52.162;7.560;2022-12-13T14:45:57;100546.53;;;-1.26;94.66
64841;BME280;51307;52.162;7.560;2022-12-13T14:48:25;100531.28;;;-1.27;94.36
64841;BME280;51307;52.162;7.560;2022-12-13T14:50:52;100527.03;;;-1.28;94.44
64841;BME280;51307;52.162;7.560;2022-12-13T14:53:24;100540.09;;;-1.33;94.33
64841;BME280;51307;52.162;7.560;2022-12-13T14:56:07;100528.63;;;-1.42;94.25
64841;BME280;51307;52.162;7.560;2022-12-13T14:58:33;100527.72;;;-1.41;94.33